This is the latest recevied weather packets stored in our database for station/object SP9TWP-3. If no packets are shown the sender has not sent any weather packets the latest 10 day(s).
| Time | Temp. | Humidity | Pressure | Rain* | Wind** | Luminosity | Snow |
|---|---|---|---|---|---|---|---|
| 1777530635 | 8.89° C | 41% | 1029.6 hPa | - | - | - | - |
| 1777529735 | 10° C | 44% | 1029.6 hPa | - | - | - | - |
| 1777528835 | 8.89° C | 44% | 1029.4 hPa | - | - | - | - |
| 1777527935 | 7.78° C | 48% | 1029.4 hPa | - | - | - | - |
| 1777527035 | 6.67° C | 52% | 1029.3 hPa | - | - | - | - |
| 1777526135 | 5° C | 58% | 1029.3 hPa | - | - | - | - |
| 1777525296 | 3.33° C | 63% | 1029.3 hPa | - | - | - | - |
| 1777525235 | 3.33° C | 63% | 1029.3 hPa | - | - | - | - |
| 1777524334 | 2.78° C | 66% | 1029.3 hPa | - | - | - | - |
| 1777523434 | 1.67° C | 69% | 1029 hPa | - | - | - | - |
| 1777522534 | 1.11° C | 72% | 1028.9 hPa | - | - | - | - |
| 1777521634 | 0.56° C | 76% | 1028.8 hPa | - | - | - | - |
| 1777520734 | 0° C | 77% | 1028.9 hPa | - | - | - | - |
| 1777519833 | 0° C | 78% | 1028.8 hPa | - | - | - | - |
| 1777518933 | -0.56° C | 79% | 1028.8 hPa | - | - | - | - |
| 1777518033 | 0° C | 80% | 1028.8 hPa | - | - | - | - |
| 1777517133 | 0° C | 78% | 1028.6 hPa | - | - | - | - |
| 1777516233 | 0° C | 77% | 1028.7 hPa | - | - | - | - |
| 1777515333 | 0° C | 77% | 1028.6 hPa | - | - | - | - |
| 1777514433 | 0.56° C | 76% | 1028.6 hPa | - | - | - | - |
| 1777513532 | 0.56° C | 76% | 1028.6 hPa | - | - | - | - |
| 1777512632 | 0.56° C | 74% | 1028.4 hPa | - | - | - | - |
| 1777511732 | 0.56° C | 73% | 1028.3 hPa | - | - | - | - |
| 1777510832 | 0.56° C | 73% | 1028.3 hPa | - | - | - | - |
| 1777509932 | 0.56° C | 77% | 1028.4 hPa | - | - | - | - |
* Rain since midnight (hover to see other rain measurements)
** Current wind speed in m/s (hover to see current wind gust speed)